Time;durP1;ratioP1;P1;durP2;ratioP2;P2;SDS_P1;SDS_P2;PMS_P1;PMS_P2;Temp;Humidity;BMP_temperature;BMP_pressure;BME280_temperature;BME280_humidity;BME280_pressure;Samples;Min_cycle;Max_cycle;Signal;HPM_P1;HPM_P2
2024/01/26 00:01:10;;;;;;;18.63;16.83;;;;;;;;;;4943510;28;25152;-65
2024/01/26 00:03:36;;;;;;;18.85;16.13;;;;;;;;;;4946482;28;25156;-65
2024/01/26 00:06:02;;;;;;;16.42;14.95;;;;;;;;;;4964713;28;25043;-65
2024/01/26 00:08:28;;;;;;;16.88;15.27;;;;;;;;;;4968802;28;25144;-64
2024/01/26 00:10:54;;;;;;;18.38;16.13;;;;;;;;;;4967970;28;25135;-65
2024/01/26 00:13:20;;;;;;;16.65;15.05;;;;;;;;;;4969004;28;25130;-65
2024/01/26 00:15:46;;;;;;;15.73;14.27;;;;;;;;;;4965705;28;25085;-66
2024/01/26 00:18:12;;;;;;;17.10;15.40;;;;;;;;;;4968790;28;25082;-64
2024/01/26 00:20:38;;;;;;;15.05;13.50;;;;;;;;;;4969887;28;25058;-66
2024/01/26 00:23:04;;;;;;;14.55;12.60;;;;;;;;;;4994331;28;25069;-66
2024/01/26 00:25:30;;;;;;;14.68;13.38;;;;;;;;;;4982639;28;25064;-66
2024/01/26 00:27:56;;;;;;;14.85;13.65;;;;;;;;;;4974504;28;25152;-65
2024/01/26 00:30:22;;;;;;;16.10;14.50;;;;;;;;;;4971070;28;25079;-64
2024/01/26 00:32:48;;;;;;;13.73;12.57;;;;;;;;;;4968437;28;25154;-64
2024/01/26 00:35:14;;;;;;;13.88;12.65;;;;;;;;;;4966587;28;25200;-65
2024/01/26 00:37:39;;;;;;;14.48;13.27;;;;;;;;;;4964254;28;25066;-64
2024/01/26 00:40:07;;;;;;;13.82;12.60;;;;;;;;;;4972082;28;25154;-65
2024/01/26 00:42:33;;;;;;;14.90;13.60;;;;;;;;;;4968284;28;25106;-66
2024/01/26 00:44:59;;;;;;;14.77;13.48;;;;;;;;;;4970848;28;25126;-66
2024/01/26 00:47:25;;;;;;;14.55;13.02;;;;;;;;;;4965597;28;25057;-66
2024/01/26 00:49:51;;;;;;;13.88;12.65;;;;;;;;;;4965898;28;25077;-64
2024/01/26 00:52:17;;;;;;;14.00;12.80;;;;;;;;;;4963620;28;25081;-66
2024/01/26 00:54:43;;;;;;;12.95;11.82;;;;;;;;;;4973030;28;25050;-65
2024/01/26 00:57:09;;;;;;;13.98;12.70;;;;;;;;;;4968665;28;25062;-64
2024/01/26 00:59:35;;;;;;;13.35;12.10;;;;;;;;;;4966708;28;25079;-65
2024/01/26 01:02:01;;;;;;;13.07;11.82;;;;;;;;;;4966754;28;25092;-65
2024/01/26 01:04:27;;;;;;;12.48;11.27;;;;;;;;;;4967731;28;25143;-65
2024/01/26 01:06:53;;;;;;;12.90;10.75;;;;;;;;;;4964993;28;25081;-63
2024/01/26 01:09:19;;;;;;;12.68;11.02;;;;;;;;;;4972188;28;25056;-64
2024/01/26 01:11:45;;;;;;;11.93;10.90;;;;;;;;;;4967303;28;25055;-66
2024/01/26 01:14:12;;;;;;;12.45;11.23;;;;;;;;;;4966758;28;25073;-66
2024/01/26 01:16:39;;;;;;;11.88;10.77;;;;;;;;;;4966592;28;25074;-66
2024/01/26 01:19:07;;;;;;;12.82;10.85;;;;;;;;;;4976269;28;25059;-66
2024/01/26 01:21:33;;;;;;;12.57;11.27;;;;;;;;;;4967588;28;25108;-65
2024/01/26 01:23:59;;;;;;;12.35;11.25;;;;;;;;;;4966767;28;25089;-65
2024/01/26 01:26:27;;;;;;;13.05;11.48;;;;;;;;;;4971267;28;25085;-67
2024/01/26 01:28:53;;;;;;;13.93;12.48;;;;;;;;;;4966855;28;25080;-69
2024/01/26 01:31:19;;;;;;;14.82;12.30;;;;;;;;;;4966865;28;25133;-66
2024/01/26 01:33:45;;;;;;;13.63;11.40;;;;;;;;;;4966356;28;25158;-66
2024/01/26 01:36:11;;;;;;;14.55;12.07;;;;;;;;;;4965802;28;25120;-66
2024/01/26 01:38:37;;;;;;;13.75;12.35;;;;;;;;;;4965195;28;25056;-65
2024/01/26 01:41:03;;;;;;;13.98;12.65;;;;;;;;;;4970884;28;25069;-65
2024/01/26 01:43:29;;;;;;;16.48;13.50;;;;;;;;;;4972567;28;24893;-65
2024/01/26 01:45:55;;;;;;;14.23;12.82;;;;;;;;;;4966395;28;24924;-63
2024/01/26 01:48:22;;;;;;;12.82;11.57;;;;;;;;;;4965372;28;25071;-66
2024/01/26 01:50:48;;;;;;;15.18;13.57;;;;;;;;;;4983438;28;25052;-65
2024/01/26 01:53:15;;;;;;;17.15;14.20;;;;;;;;;;4966168;28;25055;-66
2024/01/26 01:55:42;;;;;;;15.30;13.82;;;;;;;;;;4968091;28;25108;-64
2024/01/26 01:58:08;;;;;;;19.23;14.40;;;;;;;;;;4968274;28;25068;-70
2024/01/26 02:00:35;;;;;;;19.17;15.48;;;;;;;;;;4966209;28;25068;-66
2024/01/26 02:03:01;;;;;;;17.10;15.30;;;;;;;;;;4962968;28;25132;-66
2024/01/26 02:05:27;;;;;;;16.17;14.35;;;;;;;;;;4969766;28;25066;-66
2024/01/26 02:07:53;;;;;;;14.95;13.55;;;;;;;;;;4965375;28;25135;-65
2024/01/26 02:10:19;;;;;;;18.08;14.52;;;;;;;;;;4964211;28;25077;-68
2024/01/26 02:12:45;;;;;;;16.30;13.73;;;;;;;;;;4963140;28;25081;-65
2024/01/26 02:15:11;;;;;;;19.50;14.32;;;;;;;;;;4962977;28;25077;-66
2024/01/26 02:17:39;;;;;;;16.25;12.35;;;;;;;;;;4969246;28;25103;-65
2024/01/26 02:20:05;;;;;;;13.00;11.73;;;;;;;;;;4970044;28;25060;-66
2024/01/26 02:22:32;;;;;;;15.93;12.23;;;;;;;;;;4968025;28;25099;-65
2024/01/26 02:24:58;;;;;;;16.98;13.75;;;;;;;;;;4968696;28;25106;-66
2024/01/26 02:27:24;;;;;;;13.18;11.88;;;;;;;;;;4970312;28;25110;-65
2024/01/26 02:29:50;;;;;;;15.55;12.68;;;;;;;;;;4967892;28;25088;-65
2024/01/26 02:32:16;;;;;;;17.70;12.40;;;;;;;;;;4976166;28;25065;-65
2024/01/26 02:34:42;;;;;;;14.43;12.77;;;;;;;;;;4964325;28;25079;-66
2024/01/26 02:37:10;;;;;;;15.38;11.38;;;;;;;;;;4968531;28;25054;-67
2024/01/26 02:39:36;;;;;;;15.55;11.95;;;;;;;;;;4971057;28;25094;-66
2024/01/26 02:42:02;;;;;;;15.60;11.45;;;;;;;;;;4971618;28;25066;-66
2024/01/26 02:44:28;;;;;;;15.27;12.20;;;;;;;;;;4975314;28;25067;-64
2024/01/26 02:46:54;;;;;;;16.52;12.07;;;;;;;;;;4977823;28;25083;-65
2024/01/26 02:49:20;;;;;;;15.00;11.55;;;;;;;;;;4970892;28;25084;-65
2024/01/26 02:51:46;;;;;;;13.00;10.57;;;;;;;;;;4970908;28;25163;-67
2024/01/26 02:54:12;;;;;;;16.27;11.27;;;;;;;;;;4969958;28;25056;-64
2024/01/26 02:56:38;;;;;;;11.32;10.10;;;;;;;;;;4970745;28;25061;-67
2024/01/26 02:59:04;;;;;;;17.70;11.43;;;;;;;;;;4965487;28;25048;-65
2024/01/26 03:01:30;;;;;;;16.52;10.70;;;;;;;;;;4967944;28;25058;-65
2024/01/26 03:03:56;;;;;;;12.57;10.95;;;;;;;;;;4966625;28;25152;-67
2024/01/26 03:06:22;;;;;;;13.70;11.48;;;;;;;;;;4967133;28;25081;-64
2024/01/26 03:08:48;;;;;;;13.85;12.32;;;;;;;;;;4966220;28;25101;-63
2024/01/26 03:11:15;;;;;;;16.13;12.38;;;;;;;;;;4968280;28;25066;-64
2024/01/26 03:13:41;;;;;;;16.52;12.43;;;;;;;;;;4969346;28;25100;-69
2024/01/26 03:16:07;;;;;;;14.95;13.35;;;;;;;;;;4969150;28;25104;-64
2024/01/26 03:18:33;;;;;;;16.17;12.43;;;;;;;;;;4968069;28;24887;-65
2024/01/26 03:20:59;;;;;;;19.60;13.13;;;;;;;;;;4966272;28;25144;-66
2024/01/26 03:23:25;;;;;;;19.63;14.43;;;;;;;;;;4968792;28;25066;-66
2024/01/26 03:25:51;;;;;;;18.52;14.70;;;;;;;;;;4965894;28;25055;-66
2024/01/26 03:28:17;;;;;;;15.52;13.85;;;;;;;;;;4986608;28;25136;-66
2024/01/26 03:30:43;;;;;;;17.38;14.68;;;;;;;;;;4965384;28;25110;-68
2024/01/26 03:33:09;;;;;;;19.23;15.93;;;;;;;;;;4971427;28;25075;-65
2024/01/26 03:35:36;;;;;;;20.58;16.33;;;;;;;;;;4972287;28;25147;-65
2024/01/26 03:38:02;;;;;;;21.75;16.27;;;;;;;;;;4972263;28;25052;-67
2024/01/26 03:40:28;;;;;;;17.40;15.63;;;;;;;;;;4970479;28;25078;-65
2024/01/26 03:42:54;;;;;;;23.42;15.95;;;;;;;;;;4968789;28;25054;-68
2024/01/26 03:45:20;;;;;;;24.60;18.15;;;;;;;;;;4972696;28;25137;-66
2024/01/26 03:47:46;;;;;;;23.13;18.05;;;;;;;;;;4972851;28;25059;-64
2024/01/26 03:50:13;;;;;;;19.50;16.27;;;;;;;;;;4972975;28;25152;-66
2024/01/26 03:52:38;;;;;;;25.20;18.38;;;;;;;;;;4968563;28;25087;-67
2024/01/26 03:55:06;;;;;;;24.20;19.02;;;;;;;;;;4967769;28;25106;-64
2024/01/26 03:57:33;;;;;;;23.83;18.73;;;;;;;;;;4968967;28;25102;-65
2024/01/26 03:59:59;;;;;;;22.92;18.05;;;;;;;;;;4971621;28;25048;-66
2024/01/26 04:02:25;;;;;;;23.27;17.55;;;;;;;;;;4973927;28;25079;-64
2024/01/26 04:04:51;;;;;;;24.75;17.77;;;;;;;;;;4965713;28;25056;-67
2024/01/26 04:07:17;;;;;;;21.15;18.55;;;;;;;;;;4970136;28;25055;-66
2024/01/26 04:09:43;;;;;;;25.48;18.95;;;;;;;;;;4968217;28;25075;-65
2024/01/26 04:12:09;;;;;;;21.20;17.67;;;;;;;;;;4967235;28;25060;-65
2024/01/26 04:14:35;;;;;;;24.92;17.02;;;;;;;;;;4967616;28;25062;-64
2024/01/26 04:17:01;;;;;;;24.58;19.08;;;;;;;;;;4968585;28;25074;-63
2024/01/26 04:19:27;;;;;;;24.85;17.63;;;;;;;;;;4967611;28;25070;-65
2024/01/26 04:21:53;;;;;;;24.38;18.90;;;;;;;;;;4968205;28;25081;-66
2024/01/26 04:24:19;;;;;;;23.05;17.85;;;;;;;;;;4969554;28;25097;-66
2024/01/26 04:26:45;;;;;;;23.23;18.77;;;;;;;;;;4966861;28;25146;-65
2024/01/26 04:29:11;;;;;;;22.40;18.30;;;;;;;;;;4970058;28;25100;-66
2024/01/26 04:31:43;;;;;;;24.10;18.80;;;;;;;;;;4968191;28;25120;-67
2024/01/26 04:34:09;;;;;;;28.63;18.27;;;;;;;;;;4965347;28;25095;-68
2024/01/26 04:36:35;;;;;;;25.67;19.30;;;;;;;;;;4968209;28;25066;-66
2024/01/26 04:39:02;;;;;;;21.63;19.48;;;;;;;;;;4966993;28;26187;-66
2024/01/26 04:41:28;;;;;;;27.73;19.73;;;;;;;;;;4969901;28;25163;-67
2024/01/26 04:43:55;;;;;;;24.10;20.30;;;;;;;;;;4962328;28;25065;-65
2024/01/26 04:46:21;;;;;;;28.65;22.33;;;;;;;;;;4966463;28;25061;-63
2024/01/26 04:48:47;;;;;;;27.55;20.70;;;;;;;;;;4964839;28;25053;-65
2024/01/26 04:51:13;;;;;;;26.63;23.70;;;;;;;;;;4967686;28;25144;-66
2024/01/26 04:53:39;;;;;;;28.67;24.73;;;;;;;;;;4967035;28;25097;-65
2024/01/26 04:56:05;;;;;;;35.42;22.88;;;;;;;;;;4964008;28;25059;-66
2024/01/26 04:58:31;;;;;;;30.90;24.50;;;;;;;;;;4973920;28;25051;-66
2024/01/26 05:00:57;;;;;;;27.95;24.98;;;;;;;;;;4978694;28;25090;-65
2024/01/26 05:03:23;;;;;;;32.42;26.05;;;;;;;;;;4975878;28;25083;-66
2024/01/26 05:05:50;;;;;;;31.02;27.05;;;;;;;;;;4978006;28;25082;-67
2024/01/26 05:08:16;;;;;;;27.27;24.45;;;;;;;;;;4975461;28;25056;-66
2024/01/26 05:10:42;;;;;;;32.20;25.90;;;;;;;;;;4969213;28;25081;-66
2024/01/26 05:13:09;;;;;;;27.35;24.42;;;;;;;;;;4967040;28;25087;-68
2024/01/26 05:15:36;;;;;;;28.98;25.50;;;;;;;;;;4966328;28;25108;-66
2024/01/26 05:18:03;;;;;;;27.83;24.80;;;;;;;;;;4965723;28;25064;-67
2024/01/26 05:20:29;;;;;;;32.78;26.00;;;;;;;;;;4966703;28;25076;-66
2024/01/26 05:22:55;;;;;;;31.33;26.20;;;;;;;;;;4966790;28;25125;-66
2024/01/26 05:25:21;;;;;;;31.90;25.00;;;;;;;;;;4964412;28;25115;-66
2024/01/26 05:27:47;;;;;;;37.38;25.30;;;;;;;;;;4962826;28;25085;-67
2024/01/26 05:30:13;;;;;;;33.15;26.83;;;;;;;;;;4964799;28;25155;-68
2024/01/26 05:32:39;;;;;;;33.17;27.13;;;;;;;;;;4963323;28;25102;-67
2024/01/26 05:35:05;;;;;;;27.73;24.23;;;;;;;;;;4963153;28;25076;-65
2024/01/26 05:37:31;;;;;;;28.08;24.65;;;;;;;;;;4966996;28;25163;-67
2024/01/26 05:39:58;;;;;;;31.90;27.45;;;;;;;;;;4965301;28;25058;-67
2024/01/26 05:42:23;;;;;;;31.92;26.05;;;;;;;;;;4948926;28;25139;-69
2024/01/26 05:44:49;;;;;;;37.67;28.65;;;;;;;;;;4949061;28;25073;-66
2024/01/26 05:47:16;;;;;;;29.15;25.30;;;;;;;;;;4974638;28;25050;-67
2024/01/26 05:49:44;;;;;;;26.63;23.90;;;;;;;;;;4965248;28;25098;-67
2024/01/26 05:52:10;;;;;;;26.85;23.92;;;;;;;;;;4970603;28;25157;-67
2024/01/26 05:54:36;;;;;;;32.65;25.00;;;;;;;;;;4967934;28;25103;-64
2024/01/26 05:57:01;;;;;;;31.73;24.92;;;;;;;;;;4967741;28;25053;-64
2024/01/26 05:59:27;;;;;;;32.10;25.88;;;;;;;;;;4969226;28;25133;-67
2024/01/26 06:01:53;;;;;;;26.90;22.88;;;;;;;;;;4967828;28;25051;-67
2024/01/26 06:04:19;;;;;;;32.00;25.63;;;;;;;;;;4971329;28;25073;-66
2024/01/26 06:06:45;;;;;;;27.88;24.27;;;;;;;;;;4967818;28;25114;-68
2024/01/26 06:09:12;;;;;;;30.17;24.27;;;;;;;;;;4962531;28;25102;-67
2024/01/26 06:11:41;;;;;;;31.83;24.60;;;;;;;;;;4957351;28;25178;-66
2024/01/26 06:14:08;;;;;;;32.45;24.63;;;;;;;;;;4957762;28;25069;-65
2024/01/26 06:16:35;;;;;;;29.27;24.00;;;;;;;;;;4954001;28;25112;-65
2024/01/26 06:19:01;;;;;;;32.70;24.92;;;;;;;;;;4966098;28;25089;-67
2024/01/26 06:21:27;;;;;;;30.83;25.00;;;;;;;;;;4965577;28;25065;-65
2024/01/26 06:23:52;;;;;;;33.58;24.80;;;;;;;;;;4965717;28;25141;-65
2024/01/26 06:26:20;;;;;;;26.25;23.08;;;;;;;;;;4964278;28;25063;-67
2024/01/26 06:28:46;;;;;;;29.73;24.02;;;;;;;;;;4966990;28;25103;-69
2024/01/26 06:31:11;;;;;;;27.35;22.52;;;;;;;;;;4966074;28;25084;-65
2024/01/26 06:33:37;;;;;;;23.73;21.30;;;;;;;;;;4980688;28;25066;-66
2024/01/26 06:36:04;;;;;;;23.45;20.75;;;;;;;;;;4965475;28;25080;-66
2024/01/26 06:38:29;;;;;;;27.23;22.35;;;;;;;;;;4965915;28;25076;-63
2024/01/26 06:40:57;;;;;;;22.70;20.05;;;;;;;;;;4966478;28;25061;-68
2024/01/26 06:43:23;;;;;;;22.25;18.17;;;;;;;;;;4966322;28;25052;-70
2024/01/26 06:45:49;;;;;;;22.45;19.60;;;;;;;;;;4966339;28;25051;-66
2024/01/26 06:48:15;;;;;;;21.17;18.00;;;;;;;;;;4964903;28;25154;-66
2024/01/26 06:50:41;;;;;;;20.63;17.15;;;;;;;;;;4966459;28;25108;-66
2024/01/26 06:53:09;;;;;;;21.50;18.65;;;;;;;;;;4961344;28;25073;-68
2024/01/26 06:55:35;;;;;;;23.83;20.02;;;;;;;;;;4945950;28;25145;-67
2024/01/26 06:58:01;;;;;;;21.70;19.52;;;;;;;;;;4945464;28;25072;-66
2024/01/26 07:00:27;;;;;;;21.13;18.95;;;;;;;;;;4962676;28;25142;-66
2024/01/26 07:02:53;;;;;;;23.55;17.90;;;;;;;;;;4966376;28;25062;-67
2024/01/26 07:05:19;;;;;;;23.98;19.67;;;;;;;;;;4965567;28;25098;-68
2024/01/26 07:07:45;;;;;;;20.85;17.63;;;;;;;;;;4961966;28;25145;-69
2024/01/26 07:10:11;;;;;;;22.42;18.75;;;;;;;;;;4965777;28;25105;-66
2024/01/26 07:12:37;;;;;;;22.00;19.70;;;;;;;;;;4966137;28;25068;-69
2024/01/26 07:15:04;;;;;;;24.05;20.23;;;;;;;;;;4966608;28;25060;-66
2024/01/26 07:17:30;;;;;;;20.40;18.25;;;;;;;;;;4966172;28;25082;-66
2024/01/26 07:19:56;;;;;;;22.20;18.45;;;;;;;;;;4967213;28;25061;-66
2024/01/26 07:22:22;;;;;;;26.67;18.80;;;;;;;;;;4973223;28;25071;-65
2024/01/26 07:24:48;;;;;;;20.75;18.25;;;;;;;;;;4991248;28;25102;-67
2024/01/26 07:27:14;;;;;;;25.10;20.02;;;;;;;;;;4987354;28;25087;-65
2024/01/26 07:29:40;;;;;;;23.92;19.98;;;;;;;;;;4979695;28;25051;-68
2024/01/26 07:32:06;;;;;;;22.15;19.40;;;;;;;;;;4971752;28;25054;-68
2024/01/26 07:34:32;;;;;;;21.60;18.90;;;;;;;;;;4967845;28;25078;-70
2024/01/26 07:36:58;;;;;;;23.10;17.83;;;;;;;;;;4966023;28;25056;-69
2024/01/26 07:39:26;;;;;;;21.55;18.25;;;;;;;;;;4966479;28;25092;-67
2024/01/26 07:41:52;;;;;;;22.85;18.52;;;;;;;;;;4965183;28;25084;-66
2024/01/26 07:44:18;;;;;;;22.45;16.98;;;;;;;;;;4965428;28;25124;-67
2024/01/26 07:46:44;;;;;;;23.65;18.52;;;;;;;;;;4964462;28;25128;-66
2024/01/26 07:49:10;;;;;;;23.42;19.02;;;;;;;;;;4965288;28;25126;-65
2024/01/26 07:51:36;;;;;;;23.65;17.75;;;;;;;;;;4965370;28;25090;-67
2024/01/26 07:54:02;;;;;;;19.60;17.27;;;;;;;;;;4960381;28;25076;-65
2024/01/26 07:56:28;;;;;;;22.40;17.63;;;;;;;;;;4970319;28;25050;-64
2024/01/26 07:58:54;;;;;;;19.85;15.95;;;;;;;;;;4968394;28;25144;-65
2024/01/26 08:01:20;;;;;;;23.83;15.65;;;;;;;;;;4968304;28;25060;-64
2024/01/26 08:03:46;;;;;;;17.55;14.10;;;;;;;;;;4974139;28;25099;-65
2024/01/26 08:06:12;;;;;;;18.20;15.13;;;;;;;;;;4968997;28;25109;-66
2024/01/26 08:08:38;;;;;;;19.77;14.35;;;;;;;;;;4968607;28;25059;-66
2024/01/26 08:11:05;;;;;;;20.70;13.75;;;;;;;;;;4970056;28;25090;-65
2024/01/26 08:13:31;;;;;;;17.17;13.30;;;;;;;;;;4969765;28;25144;-67
2024/01/26 08:15:57;;;;;;;21.02;11.95;;;;;;;;;;4966665;28;25065;-67
2024/01/26 08:18:23;;;;;;;21.52;11.75;;;;;;;;;;4967811;28;25097;-65
2024/01/26 08:20:49;;;;;;;23.58;11.73;;;;;;;;;;4971094;28;25076;-66
2024/01/26 08:23:15;;;;;;;15.65;8.63;;;;;;;;;;4971695;28;25057;-66
2024/01/26 08:25:41;;;;;;;19.95;7.60;;;;;;;;;;4967498;28;25053;-67
2024/01/26 08:28:07;;;;;;;22.65;7.80;;;;;;;;;;4962936;28;25153;-65
2024/01/26 08:30:34;;;;;;;26.17;7.43;;;;;;;;;;4955071;28;25107;-70
2024/01/26 08:33:00;;;;;;;29.05;7.00;;;;;;;;;;4989038;28;25071;-67
2024/01/26 08:35:26;;;;;;;24.23;6.65;;;;;;;;;;4956572;28;25134;-66
2024/01/26 08:37:52;;;;;;;21.50;7.20;;;;;;;;;;4964609;28;25041;-66
2024/01/26 08:40:18;;;;;;;27.20;7.65;;;;;;;;;;4970723;28;25059;-67
2024/01/26 08:42:44;;;;;;;22.80;6.75;;;;;;;;;;4964360;28;25063;-65
2024/01/26 08:45:10;;;;;;;24.33;6.55;;;;;;;;;;4967449;28;25085;-66
2024/01/26 08:47:36;;;;;;;23.77;7.45;;;;;;;;;;4967521;28;25115;-68
2024/01/26 08:50:02;;;;;;;24.90;7.43;;;;;;;;;;4968556;28;25148;-66
2024/01/26 08:52:28;;;;;;;21.65;6.50;;;;;;;;;;4969853;28;25062;-66
2024/01/26 08:54:54;;;;;;;30.50;7.80;;;;;;;;;;4965254;28;25088;-64
2024/01/26 08:57:20;;;;;;;30.92;7.68;;;;;;;;;;4967234;28;25071;-64
2024/01/26 08:59:47;;;;;;;36.67;9.82;;;;;;;;;;4969111;28;25064;-65
2024/01/26 09:02:13;;;;;;;33.17;8.10;;;;;;;;;;4967863;28;25122;-64
2024/01/26 09:04:39;;;;;;;35.30;8.18;;;;;;;;;;4968686;28;25092;-66
2024/01/26 09:07:05;;;;;;;19.33;7.43;;;;;;;;;;4964610;28;25092;-65
2024/01/26 09:09:31;;;;;;;18.08;6.03;;;;;;;;;;4965843;28;25066;-67
2024/01/26 09:11:57;;;;;;;23.60;7.22;;;;;;;;;;4951295;28;25048;-68
2024/01/26 09:14:23;;;;;;;17.52;5.78;;;;;;;;;;4950112;28;24959;-65
2024/01/26 09:16:52;;;;;;;20.42;5.85;;;;;;;;;;4956498;28;25149;-64
2024/01/26 09:19:19;;;;;;;20.05;6.22;;;;;;;;;;4962239;28;25067;-66
2024/01/26 09:21:45;;;;;;;13.98;4.93;;;;;;;;;;4968503;28;25137;-65
2024/01/26 09:24:11;;;;;;;12.68;4.95;;;;;;;;;;4967921;28;24732;-66
2024/01/26 09:26:39;;;;;;;8.73;4.13;;;;;;;;;;4967639;28;25142;-64
2024/01/26 09:29:05;;;;;;;8.75;4.00;;;;;;;;;;4967620;28;25075;-65
2024/01/26 09:31:31;;;;;;;12.57;4.45;;;;;;;;;;4967461;28;25074;-64
2024/01/26 09:33:57;;;;;;;12.30;4.10;;;;;;;;;;4967302;28;25073;-65
2024/01/26 09:36:23;;;;;;;14.43;4.25;;;;;;;;;;4972321;28;25072;-66
2024/01/26 09:38:50;;;;;;;16.65;4.00;;;;;;;;;;4964943;28;25165;-65
2024/01/26 09:41:16;;;;;;;18.25;4.50;;;;;;;;;;4955724;28;25070;-66
2024/01/26 09:43:41;;;;;;;20.10;4.38;;;;;;;;;;4968576;28;25052;-68
2024/01/26 09:46:08;;;;;;;19.58;4.20;;;;;;;;;;4969205;28;25094;-68
2024/01/26 09:48:34;;;;;;;23.27;4.15;;;;;;;;;;4977403;28;25148;-63
2024/01/26 09:51:01;;;;;;;20.23;4.35;;;;;;;;;;4974333;28;25153;-66
2024/01/26 09:53:28;;;;;;;20.75;3.92;;;;;;;;;;4978236;28;25064;-69
2024/01/26 09:55:55;;;;;;;9.60;3.03;;;;;;;;;;4969455;28;25058;-66
2024/01/26 09:58:21;;;;;;;16.70;3.70;;;;;;;;;;4967235;28;25066;-64
2024/01/26 10:00:47;;;;;;;16.38;3.80;;;;;;;;;;4968491;28;25050;-64
2024/01/26 10:03:13;;;;;;;13.52;3.28;;;;;;;;;;4966652;28;25139;-66
2024/01/26 10:05:39;;;;;;;14.85;3.92;;;;;;;;;;4965481;28;25085;-65
2024/01/26 10:08:09;;;;;;;13.32;3.08;;;;;;;;;;4964029;28;25067;-66
2024/01/26 10:10:35;;;;;;;14.82;3.05;;;;;;;;;;4964825;28;25075;-65
2024/01/26 10:13:01;;;;;;;14.75;3.97;;;;;;;;;;4970709;28;25083;-66
2024/01/26 10:15:27;;;;;;;14.20;3.47;;;;;;;;;;4959451;28;24839;-65
2024/01/26 10:17:54;;;;;;;12.35;2.95;;;;;;;;;;4963379;28;25147;-65
2024/01/26 10:20:20;;;;;;;15.98;3.65;;;;;;;;;;4965912;28;25052;-66
2024/01/26 10:22:46;;;;;;;17.88;3.83;;;;;;;;;;4967987;28;25160;-66
2024/01/26 10:25:13;;;;;;;7.97;2.85;;;;;;;;;;4973884;28;25067;-66
2024/01/26 10:27:39;;;;;;;13.52;3.05;;;;;;;;;;4967548;28;25089;-66
2024/01/26 10:30:06;;;;;;;14.65;3.42;;;;;;;;;;4967057;28;25069;-67
2024/01/26 10:32:32;;;;;;;12.85;3.55;;;;;;;;;;4966104;28;25161;-67
2024/01/26 10:35:02;;;;;;;13.82;3.42;;;;;;;;;;4967184;28;25065;-66
2024/01/26 10:37:33;;;;;;;14.43;3.45;;;;;;;;;;4967419;28;25116;-64
2024/01/26 10:39:59;;;;;;;9.07;2.30;;;;;;;;;;4965883;28;25054;-66
2024/01/26 10:42:26;;;;;;;72.40;34.58;;;;;;;;;;4964494;28;25081;-66
2024/01/26 10:44:53;;;;;;;15.38;3.53;;;;;;;;;;4966879;28;25049;-66
2024/01/26 10:47:19;;;;;;;10.02;3.15;;;;;;;;;;4965717;28;25064;-66
2024/01/26 10:49:49;;;;;;;12.00;3.38;;;;;;;;;;4965375;28;25048;-63
2024/01/26 10:52:19;;;;;;;15.77;3.97;;;;;;;;;;4984048;28;25057;-66
2024/01/26 10:54:46;;;;;;;18.42;3.97;;;;;;;;;;4964017;28;25105;-65
2024/01/26 10:57:12;;;;;;;14.45;4.72;;;;;;;;;;4971155;28;25073;-65
2024/01/26 10:59:41;;;;;;;10.30;3.85;;;;;;;;;;4965522;28;25157;-64
2024/01/26 11:02:12;;;;;;;8.48;3.22;;;;;;;;;;4966184;28;25077;-66
2024/01/26 11:04:41;;;;;;;20.83;4.63;;;;;;;;;;4965552;28;25083;-66
2024/01/26 11:07:07;;;;;;;17.65;4.70;;;;;;;;;;4970959;28;25113;-66
2024/01/26 11:09:38;;;;;;;17.08;4.22;;;;;;;;;;4964607;28;25088;-63
2024/01/26 11:12:04;;;;;;;12.85;4.40;;;;;;;;;;4967575;28;25078;-64
2024/01/26 11:14:32;;;;;;;10.05;4.45;;;;;;;;;;4956507;28;25079;-68
2024/01/26 11:17:08;;;;;;;8.13;3.85;;;;;;;;;;4956866;28;25149;-66
2024/01/26 11:19:35;;;;;;;13.73;4.00;;;;;;;;;;4965832;28;25073;-65
2024/01/26 11:22:04;;;;;;;12.43;3.45;;;;;;;;;;4967030;28;25174;-65
2024/01/26 11:24:32;;;;;;;18.33;3.42;;;;;;;;;;4964695;28;25084;-63
2024/01/26 11:26:59;;;;;;;8.52;2.53;;;;;;;;;;4968053;28;25056;-64
2024/01/26 11:29:39;;;;;;;10.82;3.00;;;;;;;;;;4965477;28;25051;-66
2024/01/26 11:32:18;;;;;;;12.00;2.60;;;;;;;;;;4960686;28;25124;-65
2024/01/26 11:34:45;;;;;;;15.65;2.72;;;;;;;;;;4965570;28;25056;-66
2024/01/26 11:37:12;;;;;;;13.05;3.17;;;;;;;;;;4968709;28;25079;-66
2024/01/26 11:39:38;;;;;;;14.70;3.60;;;;;;;;;;4970009;28;25120;-63
2024/01/26 11:42:11;;;;;;;21.35;3.38;;;;;;;;;;4972394;28;25049;-64
2024/01/26 11:44:41;;;;;;;17.52;3.80;;;;;;;;;;4969581;28;25157;-64
2024/01/26 11:47:11;;;;;;;15.45;4.03;;;;;;;;;;4964606;28;25078;-63
2024/01/26 11:49:40;;;;;;;15.23;3.45;;;;;;;;;;4970326;28;25096;-65
2024/01/26 11:52:06;;;;;;;17.05;3.60;;;;;;;;;;4965640;28;25066;-64
2024/01/26 11:54:32;;;;;;;19.33;4.15;;;;;;;;;;4973233;28;25082;-64
2024/01/26 11:56:59;;;;;;;22.48;4.28;;;;;;;;;;4969009;28;25061;-64
2024/01/26 11:59:27;;;;;;;15.93;3.92;;;;;;;;;;4968861;28;25057;-63
2024/01/26 12:01:54;;;;;;;14.70;2.97;;;;;;;;;;4970874;28;25146;-62
2024/01/26 12:04:20;;;;;;;18.42;3.95;;;;;;;;;;4965677;28;25047;-65
2024/01/26 12:06:46;;;;;;;15.70;3.35;;;;;;;;;;4946200;28;25055;-65
2024/01/26 12:09:12;;;;;;;18.38;3.30;;;;;;;;;;4968054;28;25079;-64
2024/01/26 12:11:38;;;;;;;17.02;3.83;;;;;;;;;;4974990;28;25087;-65
2024/01/26 12:14:04;;;;;;;17.73;3.72;;;;;;;;;;4974535;28;25077;-64
2024/01/26 12:16:31;;;;;;;21.92;4.53;;;;;;;;;;4973211;28;25075;-64
2024/01/26 12:18:57;;;;;;;19.10;4.43;;;;;;;;;;4978109;28;25065;-64
2024/01/26 12:21:28;;;;;;;18.42;3.95;;;;;;;;;;4971955;28;25096;-66
2024/01/26 12:23:54;;;;;;;21.40;4.18;;;;;;;;;;4968093;28;25191;-66
2024/01/26 12:26:20;;;;;;;11.25;3.55;;;;;;;;;;4967885;28;25075;-65
2024/01/26 12:28:46;;;;;;;22.63;4.53;;;;;;;;;;4991449;28;25092;-65
2024/01/26 12:31:15;;;;;;;14.88;4.38;;;;;;;;;;4970618;28;25131;-66
2024/01/26 12:33:41;;;;;;;20.85;4.03;;;;;;;;;;4969169;28;25139;-64
2024/01/26 12:36:10;;;;;;;17.40;4.15;;;;;;;;;;4971070;28;25046;-65
2024/01/26 12:38:36;;;;;;;19.13;4.57;;;;;;;;;;4967822;28;25098;-64
2024/01/26 12:41:02;;;;;;;17.83;4.80;;;;;;;;;;4967517;28;25053;-65
2024/01/26 12:43:28;;;;;;;21.13;4.03;;;;;;;;;;4967974;28;25119;-64
2024/01/26 12:45:54;;;;;;;20.15;3.83;;;;;;;;;;4966737;28;25119;-63
2024/01/26 12:48:20;;;;;;;21.17;5.30;;;;;;;;;;4972103;28;25157;-65
2024/01/26 12:50:46;;;;;;;16.90;3.28;;;;;;;;;;4972560;28;25081;-64
2024/01/26 12:53:12;;;;;;;20.95;5.13;;;;;;;;;;4971450;28;25061;-64
2024/01/26 12:55:39;;;;;;;13.82;3.22;;;;;;;;;;4970378;28;25148;-64
2024/01/26 12:58:05;;;;;;;15.35;3.35;;;;;;;;;;4967186;28;25054;-66
2024/01/26 13:00:31;;;;;;;18.95;4.18;;;;;;;;;;4971404;28;25139;-64
2024/01/26 13:02:57;;;;;;;22.50;4.47;;;;;;;;;;4963993;28;25062;-64
2024/01/26 13:05:23;;;;;;;20.80;4.30;;;;;;;;;;4966446;28;25087;-64
2024/01/26 13:07:49;;;;;;;18.27;3.70;;;;;;;;;;4965838;28;25087;-62
2024/01/26 13:10:15;;;;;;;14.80;3.78;;;;;;;;;;4949751;28;25081;-64
2024/01/26 13:12:42;;;;;;;18.25;4.38;;;;;;;;;;4967747;28;25072;-62
2024/01/26 13:15:08;;;;;;;12.73;3.60;;;;;;;;;;4966245;28;25084;-68
2024/01/26 13:17:35;;;;;;;26.23;4.30;;;;;;;;;;4961629;28;25059;-65
2024/01/26 13:20:01;;;;;;;28.75;4.60;;;;;;;;;;4960620;28;25046;-67
2024/01/26 13:22:27;;;;;;;17.17;3.60;;;;;;;;;;4970645;28;25071;-64
2024/01/26 13:24:53;;;;;;;18.65;3.08;;;;;;;;;;4966596;28;25072;-63
2024/01/26 13:27:19;;;;;;;14.15;4.10;;;;;;;;;;4971137;28;25094;-65
2024/01/26 13:29:45;;;;;;;20.13;4.03;;;;;;;;;;4967647;28;25055;-66
2024/01/26 13:32:11;;;;;;;17.40;3.88;;;;;;;;;;4971656;28;25120;-65
2024/01/26 13:34:37;;;;;;;16.13;3.40;;;;;;;;;;4966510;28;25134;-64
2024/01/26 13:37:03;;;;;;;19.33;4.25;;;;;;;;;;4965655;28;25071;-64
2024/01/26 13:39:29;;;;;;;20.33;3.67;;;;;;;;;;4966567;28;25055;-64
2024/01/26 13:41:54;;;;;;;16.92;3.83;;;;;;;;;;4966873;28;25106;-63
2024/01/26 13:44:21;;;;;;;23.70;4.57;;;;;;;;;;4965836;28;25055;-66
2024/01/26 13:46:47;;;;;;;20.33;4.20;;;;;;;;;;4964346;28;25065;-63
2024/01/26 13:49:13;;;;;;;18.52;3.72;;;;;;;;;;4966745;28;25081;-64
2024/01/26 13:51:39;;;;;;;18.73;3.38;;;;;;;;;;4967412;28;25089;-64
2024/01/26 13:54:05;;;;;;;18.05;4.30;;;;;;;;;;4966067;28;25081;-65
2024/01/26 13:56:31;;;;;;;15.23;3.90;;;;;;;;;;4966298;28;25068;-64
2024/01/26 13:58:57;;;;;;;22.25;4.32;;;;;;;;;;4965754;28;25057;-65
2024/01/26 14:01:23;;;;;;;19.50;3.83;;;;;;;;;;4969617;28;25084;-64
2024/01/26 14:03:52;;;;;;;17.00;3.28;;;;;;;;;;4966909;28;25063;-61
2024/01/26 14:06:18;;;;;;;23.75;3.78;;;;;;;;;;4970708;28;25074;-62
2024/01/26 14:08:44;;;;;;;16.20;3.92;;;;;;;;;;4964381;28;25049;-63
2024/01/26 14:11:10;;;;;;;15.65;3.53;;;;;;;;;;4969172;28;25063;-63
2024/01/26 14:13:38;;;;;;;20.05;3.97;;;;;;;;;;4965937;28;25140;-64
2024/01/26 14:16:07;;;;;;;26.63;4.68;;;;;;;;;;4963058;28;25073;-63
2024/01/26 14:18:34;;;;;;;14.70;3.67;;;;;;;;;;4969981;28;25159;-63